RYR624V EGNX-LEMI
Flight info
| Callsign | RYR624V |
|---|---|
| Flight time | 2h 16m |
| Altitude | 23000 |
| Route | SAPCO Y53 DTY M605 FINMA/N0467F350 UM605 SILVA/N0467F340 Q41 COWLY/N0466F350 DCT GWC UN859 SOPIL DCT BALAN DCT LMG DCT PIMQO DCT AGN DCT ANETO DCT POSSY DCT XIMPE DCT RIMES DCT SAURA DCT TATOS DCT PLANA DCT VLC L34 ALT |
| Aircraft | B738/M-SDE2E3FGHIRWXY/LB1 |
Departure
| Time | 2026-04-24 07:42 |
|---|---|
| Airport | East Midlands Airport (EGNX) |
Arrival
| Time | 2026-04-24 09:58 |
|---|---|
| Airport | Region of Murcia International Airport (LEMI) |
| Time | Latitude | Longitude | Altitude | Speed | Heading |
|---|---|---|---|---|---|
| 2026-04-24 07:29 | 52.82709 | -1.33209 | 300 ft | 0 kts | 178° |
| 2026-04-24 07:35 | 52.82711 | -1.33209 | 299 ft | 2 kts | 178° |
| 2026-04-24 07:35 | 52.82736 | -1.33210 | 299 ft | 4 kts | 178° |
| 2026-04-24 07:35 | 52.82757 | -1.33211 | 300 ft | 4 kts | 184° |
| 2026-04-24 07:36 | 52.82778 | -1.33197 | 300 ft | 4 kts | 239° |
| 2026-04-24 07:36 | 52.82789 | -1.33160 | 300 ft | 4 kts | 258° |
| 2026-04-24 07:36 | 52.82791 | -1.33116 | 300 ft | 4 kts | 270° |
| 2026-04-24 07:36 | 52.82791 | -1.33095 | 300 ft | 1 kts | 268° |
| 2026-04-24 07:38 | 52.82791 | -1.33096 | 300 ft | 1 kts | 268° |
| 2026-04-24 07:38 | 52.82794 | -1.33127 | 300 ft | 5 kts | 292° |
| 2026-04-24 07:39 | 52.82842 | -1.33161 | 300 ft | 11 kts | 357° |
| 2026-04-24 07:39 | 52.82917 | -1.33197 | 300 ft | 12 kts | 302° |
| 2026-04-24 07:39 | 52.82921 | -1.33332 | 304 ft | 12 kts | 268° |
| 2026-04-24 07:39 | 52.82918 | -1.33514 | 303 ft | 20 kts | 268° |
| 2026-04-24 07:40 | 52.82913 | -1.33782 | 305 ft | 26 kts | 268° |
| 2026-04-24 07:40 | 52.82908 | -1.34093 | 299 ft | 28 kts | 268° |
| 2026-04-24 07:40 | 52.82904 | -1.34400 | 303 ft | 26 kts | 265° |
| 2026-04-24 07:40 | 52.82901 | -1.34692 | 303 ft | 25 kts | 269° |
| 2026-04-24 07:41 | 52.82901 | -1.34889 | 305 ft | 11 kts | 286° |
| 2026-04-24 07:41 | 52.82966 | -1.34935 | 304 ft | 12 kts | 355° |
| 2026-04-24 07:41 | 52.83041 | -1.34934 | 304 ft | 7 kts | 1° |
| 2026-04-24 07:41 | 52.83063 | -1.34862 | 302 ft | 11 kts | 88° |
| 2026-04-24 07:42 | 52.83072 | -1.34384 | 298 ft | 78 kts | 88° |
| 2026-04-24 07:42 | 52.83096 | -1.33112 | 306 ft | 141 kts | 89° |
| 2026-04-24 07:42 | 52.83122 | -1.31284 | 638 ft | 167 kts | 88° |
| 2026-04-24 07:42 | 52.83148 | -1.29367 | 1475 ft | 166 kts | 92° |
| 2026-04-24 07:43 | 52.83053 | -1.27424 | 2109 ft | 178 kts | 96° |
| 2026-04-24 07:43 | 52.82944 | -1.25187 | 2367 ft | 209 kts | 99° |
| 2026-04-24 07:43 | 52.82350 | -1.22901 | 2809 ft | 226 kts | 123° |
| 2026-04-24 07:43 | 52.81296 | -1.20783 | 3210 ft | 246 kts | 132° |
| 2026-04-24 07:44 | 52.80101 | -1.18691 | 3993 ft | 252 kts | 133° |
| 2026-04-24 07:44 | 52.78876 | -1.16592 | 4870 ft | 255 kts | 133° |
| 2026-04-24 07:44 | 52.77447 | -1.14812 | 5643 ft | 264 kts | 159° |
| 2026-04-24 07:44 | 52.75617 | -1.14666 | 6464 ft | 271 kts | 195° |
| 2026-04-24 07:45 | 52.73996 | -1.16268 | 7277 ft | 278 kts | 221° |
| 2026-04-24 07:45 | 52.72559 | -1.18446 | 8041 ft | 283 kts | 220° |
| 2026-04-24 07:45 | 52.71042 | -1.20566 | 8803 ft | 289 kts | 219° |
| 2026-04-24 07:45 | 52.69483 | -1.22693 | 9377 ft | 293 kts | 218° |
| 2026-04-24 07:46 | 52.67886 | -1.24826 | 10118 ft | 297 kts | 218° |
| 2026-04-24 07:46 | 52.66263 | -1.26964 | 10857 ft | 304 kts | 217° |
| 2026-04-24 07:46 | 52.64539 | -1.29209 | 11081 ft | 328 kts | 217° |
| 2026-04-24 07:46 | 52.62683 | -1.31617 | 11271 ft | 351 kts | 217° |
| 2026-04-24 07:47 | 52.60706 | -1.34175 | 11438 ft | 373 kts | 217° |
| 2026-04-24 07:47 | 52.58458 | -1.36468 | 11609 ft | 389 kts | 198° |
| 2026-04-24 07:47 | 52.55781 | -1.37029 | 12103 ft | 392 kts | 172° |
| 2026-04-24 07:47 | 52.53186 | -1.35744 | 12807 ft | 390 kts | 154° |
| 2026-04-24 07:48 | 52.50715 | -1.33888 | 13512 ft | 392 kts | 154° |
| 2026-04-24 07:48 | 52.48228 | -1.32026 | 14140 ft | 394 kts | 155° |
| 2026-04-24 07:48 | 52.45712 | -1.30192 | 14759 ft | 397 kts | 155° |
| 2026-04-24 07:48 | 52.43165 | -1.28390 | 15373 ft | 401 kts | 156° |
| 2026-04-24 07:49 | 52.40630 | -1.26636 | 16000 ft | 402 kts | 156° |
| 2026-04-24 07:49 | 52.38035 | -1.24867 | 16599 ft | 405 kts | 157° |
| 2026-04-24 07:49 | 52.35423 | -1.23107 | 17241 ft | 407 kts | 157° |
| 2026-04-24 07:49 | 52.32800 | -1.21341 | 17808 ft | 409 kts | 157° |
| 2026-04-24 07:50 | 52.30160 | -1.19565 | 18321 ft | 412 kts | 158° |
| 2026-04-24 07:50 | 52.27504 | -1.17783 | 18831 ft | 414 kts | 158° |
| 2026-04-24 07:50 | 52.24835 | -1.15990 | 19303 ft | 416 kts | 158° |
| 2026-04-24 07:50 | 52.22149 | -1.14184 | 19796 ft | 419 kts | 158° |
| 2026-04-24 07:51 | 52.19448 | -1.12372 | 20278 ft | 421 kts | 158° |
| 2026-04-24 07:51 | 52.16674 | -1.10824 | 20725 ft | 423 kts | 166° |
| 2026-04-24 07:51 | 52.13781 | -1.09882 | 21173 ft | 425 kts | 169° |
| 2026-04-24 07:51 | 52.10869 | -1.09005 | 21608 ft | 427 kts | 169° |
| 2026-04-24 07:52 | 52.07940 | -1.08101 | 22024 ft | 429 kts | 169° |
| 2026-04-24 07:52 | 52.05007 | -1.07169 | 22448 ft | 430 kts | 168° |
| 2026-04-24 07:52 | 52.02067 | -1.06216 | 22873 ft | 432 kts | 168° |
| 2026-04-24 07:52 | 51.99111 | -1.05246 | 23246 ft | 434 kts | 168° |
| 2026-04-24 07:53 | 51.96143 | -1.04261 | 23574 ft | 437 kts | 168° |
| 2026-04-24 07:53 | 51.93155 | -1.03266 | 23897 ft | 440 kts | 168° |
| 2026-04-24 07:53 | 51.90147 | -1.02272 | 24203 ft | 442 kts | 168° |
| 2026-04-24 07:53 | 51.87119 | -1.01312 | 24501 ft | 445 kts | 171° |
| 2026-04-24 07:54 | 51.84022 | -1.00940 | 24822 ft | 447 kts | 180° |
| 2026-04-24 07:54 | 51.80919 | -1.01330 | 25152 ft | 449 kts | 188° |
| 2026-04-24 07:54 | 51.77834 | -1.02200 | 25459 ft | 451 kts | 189° |
| 2026-04-24 07:54 | 51.74734 | -1.03075 | 25705 ft | 454 kts | 189° |
| 2026-04-24 07:55 | 51.71612 | -1.03920 | 25969 ft | 455 kts | 189° |
| 2026-04-24 07:55 | 51.68479 | -1.04729 | 26221 ft | 457 kts | 188° |
| 2026-04-24 07:55 | 51.65331 | -1.05525 | 26484 ft | 460 kts | 188° |
| 2026-04-24 07:55 | 51.62139 | -1.05877 | 26783 ft | 460 kts | 179° |
| 2026-04-24 07:56 | 51.58952 | -1.05458 | 27130 ft | 460 kts | 171° |
| 2026-04-24 07:56 | 51.55835 | -1.04307 | 27497 ft | 459 kts | 166° |
| 2026-04-24 07:56 | 51.52759 | -1.02988 | 27823 ft | 458 kts | 166° |
| 2026-04-24 07:56 | 51.49674 | -1.01664 | 28052 ft | 460 kts | 166° |
| 2026-04-24 07:57 | 51.46576 | -1.00358 | 28359 ft | 460 kts | 166° |
| 2026-04-24 07:57 | 51.43481 | -0.99074 | 28712 ft | 459 kts | 167° |
| 2026-04-24 07:57 | 51.40428 | -0.97821 | 29027 ft | 459 kts | 167° |
| 2026-04-24 07:57 | 51.37334 | -0.96559 | 29326 ft | 459 kts | 167° |
| 2026-04-24 07:58 | 51.34242 | -0.95304 | 29651 ft | 458 kts | 167° |
| 2026-04-24 07:58 | 51.31154 | -0.94052 | 29970 ft | 458 kts | 167° |
| 2026-04-24 07:58 | 51.28068 | -0.92801 | 30230 ft | 458 kts | 167° |
| 2026-04-24 07:58 | 51.24969 | -0.91551 | 30453 ft | 461 kts | 167° |
| 2026-04-24 07:59 | 51.21860 | -0.90291 | 30724 ft | 461 kts | 167° |
| 2026-04-24 07:59 | 51.18752 | -0.89027 | 30976 ft | 462 kts | 167° |
| 2026-04-24 07:59 | 51.15636 | -0.87766 | 31251 ft | 462 kts | 167° |
| 2026-04-24 07:59 | 51.12520 | -0.86513 | 31501 ft | 463 kts | 167° |
| 2026-04-24 08:00 | 51.09396 | -0.85258 | 31734 ft | 463 kts | 167° |
| 2026-04-24 08:00 | 51.06270 | -0.83993 | 31958 ft | 464 kts | 167° |
| 2026-04-24 08:00 | 51.03139 | -0.82740 | 32194 ft | 464 kts | 168° |
| 2026-04-24 08:00 | 51.00003 | -0.81489 | 32444 ft | 464 kts | 168° |
| 2026-04-24 08:01 | 50.96876 | -0.80240 | 32686 ft | 465 kts | 168° |
| 2026-04-24 08:01 | 50.93735 | -0.78987 | 32918 ft | 465 kts | 168° |
| 2026-04-24 08:01 | 50.90595 | -0.77734 | 33146 ft | 465 kts | 168° |
| 2026-04-24 08:01 | 50.87457 | -0.76438 | 33360 ft | 468 kts | 164° |
| 2026-04-24 08:02 | 50.84422 | -0.74574 | 33621 ft | 469 kts | 156° |
| 2026-04-24 08:02 | 50.81592 | -0.71983 | 33861 ft | 471 kts | 149° |
| 2026-04-24 08:02 | 50.78851 | -0.69145 | 34118 ft | 471 kts | 148° |
| 2026-04-24 08:02 | 50.76116 | -0.66284 | 34355 ft | 471 kts | 148° |
| 2026-04-24 08:03 | 50.73380 | -0.63434 | 34593 ft | 471 kts | 148° |
| 2026-04-24 08:03 | 50.70640 | -0.60612 | 34839 ft | 470 kts | 149° |
| 2026-04-24 08:03 | 50.67902 | -0.57814 | 35074 ft | 469 kts | 149° |
| 2026-04-24 08:03 | 50.65161 | -0.55028 | 35309 ft | 468 kts | 149° |
| 2026-04-24 08:04 | 50.59652 | -0.49456 | 35336 ft | 471 kts | 149° |
| 2026-04-24 08:04 | 50.54154 | -0.43923 | 35335 ft | 468 kts | 149° |
| 2026-04-24 08:05 | 50.48681 | -0.38430 | 35339 ft | 466 kts | 149° |
| 2026-04-24 08:05 | 50.43223 | -0.32963 | 35338 ft | 465 kts | 149° |
| 2026-04-24 08:06 | 50.37775 | -0.27519 | 35331 ft | 464 kts | 149° |
| 2026-04-24 08:06 | 50.32355 | -0.22119 | 35335 ft | 465 kts | 149° |
| 2026-04-24 08:07 | 50.26889 | -0.16693 | 35321 ft | 466 kts | 149° |
| 2026-04-24 08:07 | 50.22303 | -0.12134 | 35324 ft | 467 kts | 149° |
| 2026-04-24 08:08 | 50.16807 | -0.06710 | 35316 ft | 468 kts | 149° |
| 2026-04-24 08:09 | 50.08385 | 0.00696 | 35302 ft | 466 kts | 162° |
| 2026-04-24 08:09 | 50.02143 | 0.03253 | 35298 ft | 461 kts | 168° |
| 2026-04-24 08:10 | 49.95950 | 0.05575 | 35292 ft | 462 kts | 168° |
| 2026-04-24 08:10 | 49.89711 | 0.07954 | 35286 ft | 462 kts | 168° |
| 2026-04-24 08:11 | 49.83474 | 0.10389 | 35281 ft | 462 kts | 167° |
| 2026-04-24 08:11 | 49.77246 | 0.12824 | 35277 ft | 462 kts | 167° |
| 2026-04-24 08:12 | 49.71018 | 0.15242 | 35280 ft | 461 kts | 167° |
| 2026-04-24 08:12 | 49.64793 | 0.17687 | 35272 ft | 462 kts | 167° |
| 2026-04-24 08:13 | 49.58578 | 0.20219 | 35266 ft | 461 kts | 167° |
| 2026-04-24 08:13 | 49.52379 | 0.22739 | 35267 ft | 461 kts | 167° |
| 2026-04-24 08:14 | 49.46171 | 0.25249 | 35281 ft | 462 kts | 167° |
| 2026-04-24 08:14 | 49.39964 | 0.27741 | 35263 ft | 461 kts | 167° |
| 2026-04-24 08:15 | 49.33771 | 0.30230 | 35262 ft | 460 kts | 167° |
| 2026-04-24 08:15 | 49.27591 | 0.32740 | 35265 ft | 459 kts | 166° |
| 2026-04-24 08:16 | 49.21430 | 0.35340 | 35268 ft | 460 kts | 166° |
| 2026-04-24 08:16 | 49.15256 | 0.37954 | 35260 ft | 461 kts | 166° |
| 2026-04-24 08:17 | 49.09084 | 0.40532 | 35272 ft | 458 kts | 166° |
| 2026-04-24 08:17 | 49.02936 | 0.43107 | 35270 ft | 458 kts | 166° |
| 2026-04-24 08:18 | 48.96790 | 0.45665 | 35268 ft | 459 kts | 166° |
| 2026-04-24 08:18 | 48.90610 | 0.48232 | 35265 ft | 461 kts | 165° |
| 2026-04-24 08:19 | 48.84465 | 0.50781 | 35249 ft | 461 kts | 166° |
| 2026-04-24 08:19 | 48.78273 | 0.53336 | 35260 ft | 461 kts | 166° |
| 2026-04-24 08:20 | 48.72056 | 0.55788 | 35252 ft | 462 kts | 166° |
| 2026-04-24 08:20 | 48.65827 | 0.58198 | 35246 ft | 462 kts | 166° |
| 2026-04-24 08:21 | 48.59604 | 0.60609 | 35244 ft | 462 kts | 166° |
| 2026-04-24 08:21 | 48.53379 | 0.63043 | 35236 ft | 461 kts | 166° |
| 2026-04-24 08:22 | 48.47181 | 0.65512 | 35238 ft | 461 kts | 165° |
| 2026-04-24 08:22 | 48.40987 | 0.68048 | 35237 ft | 462 kts | 165° |
| 2026-04-24 08:23 | 48.34770 | 0.70575 | 35235 ft | 463 kts | 165° |
| 2026-04-24 08:23 | 48.28536 | 0.73095 | 35229 ft | 464 kts | 165° |
| 2026-04-24 08:24 | 48.22293 | 0.75598 | 35233 ft | 464 kts | 166° |
| 2026-04-24 08:24 | 48.16044 | 0.78046 | 35221 ft | 464 kts | 166° |
| 2026-04-24 08:25 | 48.09803 | 0.80500 | 35221 ft | 464 kts | 166° |
| 2026-04-24 08:25 | 48.03563 | 0.82950 | 35225 ft | 464 kts | 166° |
| 2026-04-24 08:26 | 47.97333 | 0.85389 | 35211 ft | 463 kts | 166° |
| 2026-04-24 08:26 | 47.91099 | 0.87816 | 35202 ft | 464 kts | 166° |
| 2026-04-24 08:27 | 47.84846 | 0.90251 | 35205 ft | 465 kts | 165° |
| 2026-04-24 08:27 | 47.78583 | 0.92683 | 35202 ft | 466 kts | 166° |
| 2026-04-24 08:28 | 47.72348 | 0.95090 | 35195 ft | 466 kts | 166° |
| 2026-04-24 08:28 | 47.66069 | 0.97511 | 35194 ft | 465 kts | 166° |
| 2026-04-24 08:29 | 47.59809 | 0.99924 | 35189 ft | 464 kts | 166° |
| 2026-04-24 08:29 | 47.53638 | 1.02291 | 35197 ft | 464 kts | 166° |
| 2026-04-24 08:30 | 47.47385 | 1.04684 | 35180 ft | 464 kts | 166° |
| 2026-04-24 08:30 | 47.41066 | 1.06468 | 35173 ft | 463 kts | 178° |
| 2026-04-24 08:31 | 47.34637 | 1.06361 | 35186 ft | 462 kts | 182° |
| 2026-04-24 08:31 | 47.28212 | 1.06106 | 35185 ft | 463 kts | 181° |
| 2026-04-24 08:32 | 47.21771 | 1.05926 | 35183 ft | 463 kts | 181° |
| 2026-04-24 08:32 | 47.15327 | 1.05777 | 35180 ft | 463 kts | 181° |
| 2026-04-24 08:33 | 47.08876 | 1.05639 | 35190 ft | 464 kts | 181° |
| 2026-04-24 08:33 | 47.02408 | 1.05494 | 35186 ft | 466 kts | 181° |
| 2026-04-24 08:34 | 46.95931 | 1.05241 | 35176 ft | 467 kts | 182° |
| 2026-04-24 08:34 | 46.89439 | 1.04932 | 35183 ft | 467 kts | 182° |
| 2026-04-24 08:35 | 46.82931 | 1.04643 | 35179 ft | 468 kts | 182° |
| 2026-04-24 08:35 | 46.76411 | 1.04366 | 35172 ft | 469 kts | 182° |
| 2026-04-24 08:36 | 46.69894 | 1.04082 | 35176 ft | 469 kts | 182° |
| 2026-04-24 08:36 | 46.63371 | 1.03803 | 35172 ft | 469 kts | 182° |
| 2026-04-24 08:37 | 46.56876 | 1.03529 | 35165 ft | 471 kts | 182° |
| 2026-04-24 08:37 | 46.50325 | 1.03257 | 35160 ft | 471 kts | 182° |
| 2026-04-24 08:38 | 46.43764 | 1.03137 | 35155 ft | 471 kts | 182° |
| 2026-04-24 08:38 | 46.37211 | 1.02742 | 35158 ft | 472 kts | 184° |
| 2026-04-24 08:39 | 46.30651 | 1.02236 | 35146 ft | 472 kts | 184° |
| 2026-04-24 08:39 | 46.24089 | 1.01769 | 35146 ft | 472 kts | 184° |
| 2026-04-24 08:40 | 46.17529 | 1.01337 | 35145 ft | 472 kts | 184° |
| 2026-04-24 08:40 | 46.10964 | 1.00921 | 35140 ft | 473 kts | 184° |
| 2026-04-24 08:41 | 46.04394 | 1.00518 | 35130 ft | 472 kts | 184° |
| 2026-04-24 08:41 | 45.97841 | 1.00099 | 35141 ft | 472 kts | 184° |
| 2026-04-24 08:42 | 45.91271 | 0.99678 | 35128 ft | 474 kts | 184° |
| 2026-04-24 08:42 | 45.84672 | 0.99263 | 35134 ft | 475 kts | 184° |
| 2026-04-24 08:43 | 45.78064 | 0.98844 | 35128 ft | 475 kts | 184° |
| 2026-04-24 08:43 | 45.71454 | 0.98433 | 35134 ft | 475 kts | 184° |
| 2026-04-24 08:44 | 45.64856 | 0.98013 | 35126 ft | 475 kts | 184° |
| 2026-04-24 08:44 | 45.58253 | 0.97592 | 35135 ft | 475 kts | 184° |
| 2026-04-24 08:45 | 45.51664 | 0.97185 | 35125 ft | 474 kts | 184° |
| 2026-04-24 08:45 | 45.45076 | 0.96770 | 35128 ft | 474 kts | 184° |
| 2026-04-24 08:46 | 45.38526 | 0.96368 | 35136 ft | 474 kts | 184° |
| 2026-04-24 08:46 | 45.31932 | 0.95961 | 35129 ft | 475 kts | 184° |
| 2026-04-24 08:47 | 45.25310 | 0.95549 | 35133 ft | 477 kts | 184° |
| 2026-04-24 08:47 | 45.18680 | 0.95138 | 35134 ft | 477 kts | 184° |
| 2026-04-24 08:48 | 45.12055 | 0.94730 | 35124 ft | 476 kts | 184° |
| 2026-04-24 08:48 | 45.05441 | 0.94327 | 35128 ft | 477 kts | 184° |
| 2026-04-24 08:49 | 44.98823 | 0.93922 | 35131 ft | 476 kts | 184° |
| 2026-04-24 08:49 | 44.92206 | 0.93515 | 35124 ft | 477 kts | 184° |
| 2026-04-24 08:50 | 44.85585 | 0.93111 | 35113 ft | 476 kts | 184° |
| 2026-04-24 08:50 | 44.78969 | 0.92707 | 35112 ft | 476 kts | 184° |
| 2026-04-24 08:51 | 44.72354 | 0.92311 | 35103 ft | 475 kts | 184° |
| 2026-04-24 08:51 | 44.65756 | 0.91908 | 35098 ft | 474 kts | 184° |
| 2026-04-24 08:52 | 44.59163 | 0.91505 | 35110 ft | 474 kts | 184° |
| 2026-04-24 08:52 | 44.52621 | 0.91116 | 35098 ft | 474 kts | 184° |
| 2026-04-24 08:53 | 44.46030 | 0.90711 | 35104 ft | 474 kts | 184° |
| 2026-04-24 08:53 | 44.39378 | 0.90313 | 35105 ft | 475 kts | 184° |
| 2026-04-24 08:54 | 44.32817 | 0.89918 | 35098 ft | 475 kts | 184° |
| 2026-04-24 08:54 | 44.26215 | 0.89523 | 35104 ft | 474 kts | 184° |
| 2026-04-24 08:55 | 44.19619 | 0.89130 | 35095 ft | 475 kts | 184° |
| 2026-04-24 08:55 | 44.13007 | 0.88732 | 35097 ft | 476 kts | 184° |
| 2026-04-24 08:56 | 44.07510 | 0.88408 | 35102 ft | 475 kts | 184° |
| 2026-04-24 08:56 | 44.00899 | 0.88017 | 35106 ft | 476 kts | 184° |
| 2026-04-24 08:57 | 43.94301 | 0.87626 | 35102 ft | 475 kts | 184° |
| 2026-04-24 08:57 | 43.87719 | 0.87130 | 35092 ft | 472 kts | 189° |
| 2026-04-24 08:58 | 43.81281 | 0.85507 | 35101 ft | 469 kts | 194° |
| 2026-04-24 08:58 | 43.74901 | 0.83662 | 35097 ft | 469 kts | 194° |
| 2026-04-24 08:59 | 43.68512 | 0.81874 | 35105 ft | 470 kts | 193° |
| 2026-04-24 08:59 | 43.62087 | 0.80149 | 35101 ft | 470 kts | 193° |
| 2026-04-24 09:00 | 43.55660 | 0.78438 | 35106 ft | 470 kts | 192° |
| 2026-04-24 09:00 | 43.49222 | 0.76729 | 35103 ft | 471 kts | 193° |
| 2026-04-24 09:01 | 43.42792 | 0.75024 | 35108 ft | 471 kts | 193° |
| 2026-04-24 09:01 | 43.36335 | 0.73462 | 35097 ft | 471 kts | 191° |
| 2026-04-24 09:02 | 43.29867 | 0.72058 | 35102 ft | 470 kts | 191° |
| 2026-04-24 09:02 | 43.23403 | 0.70690 | 35104 ft | 469 kts | 190° |
| 2026-04-24 09:03 | 43.16985 | 0.69336 | 35100 ft | 471 kts | 191° |
| 2026-04-24 09:03 | 43.10518 | 0.67970 | 35102 ft | 470 kts | 191° |
| 2026-04-24 09:04 | 43.04066 | 0.66584 | 35108 ft | 468 kts | 190° |
| 2026-04-24 09:04 | 42.97659 | 0.65137 | 35105 ft | 467 kts | 190° |
| 2026-04-24 09:05 | 42.91253 | 0.63674 | 35110 ft | 466 kts | 190° |
| 2026-04-24 09:05 | 42.84863 | 0.62199 | 35107 ft | 466 kts | 190° |
| 2026-04-24 09:06 | 42.78483 | 0.60724 | 35116 ft | 465 kts | 190° |
| 2026-04-24 09:06 | 42.72104 | 0.59239 | 35121 ft | 464 kts | 191° |
| 2026-04-24 09:07 | 42.65738 | 0.57762 | 35140 ft | 464 kts | 190° |
| 2026-04-24 09:07 | 42.56197 | 0.55542 | 35133 ft | 464 kts | 190° |
| 2026-04-24 09:08 | 42.49841 | 0.54064 | 35136 ft | 464 kts | 190° |
| 2026-04-24 09:08 | 42.43496 | 0.52589 | 35134 ft | 462 kts | 190° |
| 2026-04-24 09:09 | 42.37163 | 0.51107 | 35133 ft | 461 kts | 190° |
| 2026-04-24 09:09 | 42.30860 | 0.49630 | 35135 ft | 459 kts | 190° |
| 2026-04-24 09:10 | 42.24567 | 0.48140 | 35152 ft | 459 kts | 190° |
| 2026-04-24 09:10 | 42.18321 | 0.46654 | 35162 ft | 460 kts | 190° |
| 2026-04-24 09:11 | 42.12023 | 0.45158 | 35155 ft | 459 kts | 190° |
| 2026-04-24 09:11 | 42.05734 | 0.43666 | 35155 ft | 459 kts | 190° |
| 2026-04-24 09:12 | 41.99457 | 0.42175 | 35159 ft | 458 kts | 190° |
| 2026-04-24 09:12 | 41.93174 | 0.40671 | 35157 ft | 458 kts | 191° |
| 2026-04-24 09:13 | 41.86890 | 0.39170 | 35147 ft | 459 kts | 190° |
| 2026-04-24 09:13 | 41.80620 | 0.37678 | 35156 ft | 456 kts | 190° |
| 2026-04-24 09:14 | 41.74367 | 0.36187 | 35157 ft | 456 kts | 190° |
| 2026-04-24 09:14 | 41.68119 | 0.34702 | 35154 ft | 456 kts | 190° |
| 2026-04-24 09:15 | 41.61884 | 0.33223 | 35157 ft | 455 kts | 190° |
| 2026-04-24 09:15 | 41.55648 | 0.31748 | 35159 ft | 456 kts | 190° |
| 2026-04-24 09:16 | 41.49399 | 0.30278 | 35150 ft | 456 kts | 190° |
| 2026-04-24 09:16 | 41.43146 | 0.28801 | 35163 ft | 457 kts | 190° |
| 2026-04-24 09:17 | 41.36874 | 0.27322 | 35157 ft | 458 kts | 190° |
| 2026-04-24 09:17 | 41.30592 | 0.25846 | 35157 ft | 459 kts | 190° |
| 2026-04-24 09:18 | 41.24299 | 0.24375 | 35155 ft | 459 kts | 190° |
| 2026-04-24 09:18 | 41.18008 | 0.22908 | 35157 ft | 459 kts | 190° |
| 2026-04-24 09:19 | 41.11708 | 0.21433 | 35161 ft | 459 kts | 190° |
| 2026-04-24 09:19 | 41.05411 | 0.19972 | 35160 ft | 459 kts | 190° |
| 2026-04-24 09:20 | 40.99125 | 0.18519 | 35163 ft | 458 kts | 190° |
| 2026-04-24 09:20 | 40.92846 | 0.17079 | 35167 ft | 458 kts | 190° |
| 2026-04-24 09:21 | 40.86578 | 0.15627 | 35156 ft | 457 kts | 190° |
| 2026-04-24 09:21 | 40.80309 | 0.14164 | 35160 ft | 457 kts | 191° |
| 2026-04-24 09:22 | 40.74088 | 0.12404 | 35158 ft | 457 kts | 193° |
| 2026-04-24 09:22 | 40.67902 | 0.10506 | 35163 ft | 456 kts | 193° |
| 2026-04-24 09:23 | 40.61760 | 0.08674 | 35167 ft | 455 kts | 193° |
| 2026-04-24 09:23 | 40.55575 | 0.06873 | 35167 ft | 455 kts | 193° |
| 2026-04-24 09:24 | 40.49382 | 0.05077 | 35166 ft | 456 kts | 193° |
| 2026-04-24 09:24 | 40.43188 | 0.03297 | 35166 ft | 455 kts | 192° |
| 2026-04-24 09:25 | 40.37000 | 0.01527 | 35168 ft | 454 kts | 193° |
| 2026-04-24 09:25 | 40.30903 | -0.00229 | 35172 ft | 454 kts | 192° |
| 2026-04-24 09:26 | 40.24754 | -0.01989 | 35175 ft | 450 kts | 192° |
| 2026-04-24 09:26 | 40.18657 | -0.03730 | 35157 ft | 447 kts | 191° |
| 2026-04-24 09:27 | 40.12608 | -0.05456 | 35160 ft | 444 kts | 191° |
| 2026-04-24 09:27 | 40.06584 | -0.07170 | 35162 ft | 442 kts | 191° |
| 2026-04-24 09:28 | 40.00572 | -0.08875 | 35162 ft | 442 kts | 191° |
| 2026-04-24 09:28 | 39.94570 | -0.10580 | 35161 ft | 441 kts | 192° |
| 2026-04-24 09:29 | 39.88582 | -0.12278 | 35155 ft | 440 kts | 192° |
| 2026-04-24 09:29 | 39.82601 | -0.13971 | 35154 ft | 440 kts | 192° |
| 2026-04-24 09:30 | 39.76623 | -0.15659 | 35157 ft | 440 kts | 191° |
| 2026-04-24 09:30 | 39.70648 | -0.17342 | 35156 ft | 439 kts | 191° |
| 2026-04-24 09:31 | 39.64669 | -0.19024 | 35158 ft | 440 kts | 192° |
| 2026-04-24 09:31 | 39.58683 | -0.20701 | 35157 ft | 440 kts | 192° |
| 2026-04-24 09:32 | 39.52686 | -0.22382 | 35168 ft | 440 kts | 192° |
| 2026-04-24 09:32 | 39.46698 | -0.24060 | 35155 ft | 441 kts | 191° |
| 2026-04-24 09:33 | 39.40706 | -0.25730 | 35159 ft | 440 kts | 192° |
| 2026-04-24 09:33 | 39.34723 | -0.27397 | 35149 ft | 439 kts | 191° |
| 2026-04-24 09:34 | 39.28740 | -0.29065 | 35162 ft | 440 kts | 191° |
| 2026-04-24 09:34 | 39.22749 | -0.30730 | 35154 ft | 441 kts | 191° |
| 2026-04-24 09:35 | 39.16750 | -0.32395 | 35154 ft | 441 kts | 191° |
| 2026-04-24 09:35 | 39.10761 | -0.34052 | 35158 ft | 440 kts | 191° |
| 2026-04-24 09:36 | 39.04770 | -0.35709 | 35152 ft | 441 kts | 191° |
| 2026-04-24 09:36 | 38.98770 | -0.37362 | 35152 ft | 442 kts | 191° |
| 2026-04-24 09:37 | 38.92756 | -0.39019 | 35146 ft | 442 kts | 191° |
| 2026-04-24 09:37 | 38.86787 | -0.40659 | 35147 ft | 442 kts | 191° |
| 2026-04-24 09:38 | 38.80781 | -0.42309 | 35144 ft | 440 kts | 192° |
| 2026-04-24 09:38 | 38.74781 | -0.43958 | 35079 ft | 442 kts | 191° |
| 2026-04-24 09:39 | 38.71742 | -0.44786 | 34472 ft | 446 kts | 191° |
| 2026-04-24 09:39 | 38.68725 | -0.45609 | 33813 ft | 443 kts | 191° |
| 2026-04-24 09:39 | 38.65715 | -0.46432 | 33082 ft | 443 kts | 192° |
| 2026-04-24 09:39 | 38.62700 | -0.47256 | 32322 ft | 443 kts | 192° |
| 2026-04-24 09:40 | 38.59685 | -0.48079 | 31545 ft | 444 kts | 192° |
| 2026-04-24 09:40 | 38.56669 | -0.48898 | 30738 ft | 444 kts | 192° |
| 2026-04-24 09:40 | 38.53643 | -0.49720 | 29902 ft | 444 kts | 192° |
| 2026-04-24 09:40 | 38.50618 | -0.50543 | 29012 ft | 445 kts | 192° |
| 2026-04-24 09:41 | 38.47585 | -0.51368 | 28084 ft | 447 kts | 192° |
| 2026-04-24 09:41 | 38.44538 | -0.52195 | 27107 ft | 448 kts | 192° |
| 2026-04-24 09:41 | 38.41479 | -0.53026 | 26101 ft | 451 kts | 192° |
| 2026-04-24 09:41 | 38.38420 | -0.53858 | 25398 ft | 447 kts | 192° |
| 2026-04-24 09:42 | 38.35396 | -0.54676 | 24657 ft | 442 kts | 191° |
| 2026-04-24 09:42 | 38.32395 | -0.55484 | 23941 ft | 438 kts | 191° |
| 2026-04-24 09:42 | 38.29429 | -0.56287 | 23229 ft | 434 kts | 191° |
| 2026-04-24 09:42 | 38.27488 | -0.56887 | 22768 ft | 432 kts | 195° |
| 2026-04-24 09:43 | 38.24696 | -0.58244 | 22067 ft | 429 kts | 206° |
| 2026-04-24 09:43 | 38.22074 | -0.60013 | 21393 ft | 425 kts | 207° |
| 2026-04-24 09:43 | 38.19470 | -0.61765 | 20696 ft | 421 kts | 207° |
| 2026-04-24 09:43 | 38.16882 | -0.63486 | 20012 ft | 419 kts | 206° |
| 2026-04-24 09:44 | 38.14309 | -0.65180 | 19331 ft | 415 kts | 206° |
| 2026-04-24 09:44 | 38.11750 | -0.66855 | 18657 ft | 412 kts | 206° |
| 2026-04-24 09:44 | 38.09207 | -0.68518 | 17980 ft | 410 kts | 206° |
| 2026-04-24 09:44 | 38.06675 | -0.70170 | 17309 ft | 407 kts | 206° |
| 2026-04-24 09:45 | 38.04162 | -0.71808 | 16638 ft | 405 kts | 206° |
| 2026-04-24 09:45 | 38.01665 | -0.73435 | 15971 ft | 402 kts | 206° |
| 2026-04-24 09:45 | 37.99188 | -0.75048 | 15313 ft | 399 kts | 206° |
| 2026-04-24 09:45 | 37.96727 | -0.76651 | 14648 ft | 396 kts | 206° |
| 2026-04-24 09:46 | 37.94283 | -0.78244 | 13985 ft | 395 kts | 206° |
| 2026-04-24 09:46 | 37.91849 | -0.79822 | 13326 ft | 391 kts | 206° |
| 2026-04-24 09:46 | 37.89440 | -0.81379 | 12682 ft | 386 kts | 206° |
| 2026-04-24 09:46 | 37.87061 | -0.82926 | 12051 ft | 383 kts | 206° |
| 2026-04-24 09:47 | 37.84704 | -0.84457 | 11410 ft | 379 kts | 207° |
| 2026-04-24 09:47 | 37.82591 | -0.86396 | 11097 ft | 370 kts | 224° |
| 2026-04-24 09:47 | 37.80937 | -0.88808 | 10940 ft | 356 kts | 230° |
| 2026-04-24 09:47 | 37.79435 | -0.91221 | 10848 ft | 342 kts | 228° |
| 2026-04-24 09:48 | 37.77918 | -0.93451 | 10747 ft | 327 kts | 226° |
| 2026-04-24 09:48 | 37.76439 | -0.95567 | 10665 ft | 316 kts | 226° |
| 2026-04-24 09:48 | 37.75010 | -0.97617 | 10598 ft | 305 kts | 226° |
| 2026-04-24 09:48 | 37.73634 | -0.99591 | 10484 ft | 294 kts | 226° |
| 2026-04-24 09:49 | 37.72343 | -1.01437 | 10152 ft | 292 kts | 226° |
| 2026-04-24 09:49 | 37.70994 | -1.03368 | 9790 ft | 293 kts | 225° |
| 2026-04-24 09:49 | 37.69652 | -1.05305 | 9438 ft | 293 kts | 226° |
| 2026-04-24 09:49 | 37.68320 | -1.07246 | 9097 ft | 292 kts | 226° |
| 2026-04-24 09:50 | 37.67000 | -1.09189 | 8804 ft | 290 kts | 227° |
| 2026-04-24 09:50 | 37.65701 | -1.11132 | 8402 ft | 290 kts | 226° |
| 2026-04-24 09:50 | 37.64381 | -1.13063 | 8009 ft | 290 kts | 226° |
| 2026-04-24 09:50 | 37.63071 | -1.14998 | 7715 ft | 289 kts | 226° |
| 2026-04-24 09:51 | 37.61768 | -1.16912 | 7402 ft | 285 kts | 226° |
| 2026-04-24 09:51 | 37.60463 | -1.18805 | 6985 ft | 287 kts | 226° |
| 2026-04-24 09:51 | 37.59150 | -1.20699 | 6626 ft | 287 kts | 226° |
| 2026-04-24 09:51 | 37.58078 | -1.22813 | 6270 ft | 290 kts | 249° |
| 2026-04-24 09:52 | 37.57829 | -1.25322 | 5955 ft | 291 kts | 277° |
| 2026-04-24 09:52 | 37.58473 | -1.27673 | 5699 ft | 281 kts | 304° |
| 2026-04-24 09:52 | 37.59656 | -1.29576 | 5398 ft | 272 kts | 313° |
| 2026-04-24 09:52 | 37.60891 | -1.31337 | 5087 ft | 264 kts | 315° |
| 2026-04-24 09:53 | 37.62348 | -1.32647 | 4762 ft | 254 kts | 343° |
| 2026-04-24 09:53 | 37.64032 | -1.32867 | 4483 ft | 239 kts | 12° |
| 2026-04-24 09:53 | 37.65601 | -1.32335 | 4184 ft | 230 kts | 20° |
| 2026-04-24 09:53 | 37.67040 | -1.31555 | 3855 ft | 223 kts | 38° |
| 2026-04-24 09:54 | 37.68111 | -1.30236 | 3558 ft | 209 kts | 49° |
| 2026-04-24 09:54 | 37.69046 | -1.28881 | 3312 ft | 199 kts | 47° |
| 2026-04-24 09:54 | 37.69956 | -1.27622 | 3009 ft | 188 kts | 50° |
| 2026-04-24 09:54 | 37.70807 | -1.26389 | 2900 ft | 186 kts | 49° |
| 2026-04-24 09:55 | 37.71603 | -1.25158 | 2885 ft | 175 kts | 50° |
| 2026-04-24 09:55 | 37.72351 | -1.24005 | 2847 ft | 164 kts | 50° |
| 2026-04-24 09:55 | 37.73091 | -1.22883 | 2730 ft | 169 kts | 51° |
| 2026-04-24 09:55 | 37.73813 | -1.21728 | 2485 ft | 162 kts | 49° |
| 2026-04-24 09:56 | 37.74510 | -1.20692 | 2277 ft | 151 kts | 50° |
| 2026-04-24 09:56 | 37.75151 | -1.19663 | 2038 ft | 146 kts | 51° |
| 2026-04-24 09:56 | 37.75760 | -1.18636 | 1781 ft | 148 kts | 52° |
| 2026-04-24 09:56 | 37.76412 | -1.17642 | 1534 ft | 146 kts | 49° |
| 2026-04-24 09:57 | 37.77065 | -1.16696 | 1336 ft | 139 kts | 47° |
| 2026-04-24 09:57 | 37.77723 | -1.15800 | 1121 ft | 139 kts | 44° |
| 2026-04-24 09:57 | 37.78393 | -1.14916 | 952 ft | 144 kts | 44° |
| 2026-04-24 09:57 | 37.79105 | -1.14018 | 766 ft | 145 kts | 43° |
| 2026-04-24 09:58 | 37.79806 | -1.13123 | 659 ft | 136 kts | 44° |
| 2026-04-24 09:58 | 37.80408 | -1.12349 | 648 ft | 107 kts | 45° |
| 2026-04-24 09:58 | 37.80819 | -1.11822 | 642 ft | 59 kts | 45° |
| 2026-04-24 09:58 | 37.81041 | -1.11535 | 645 ft | 36 kts | 46° |
| 2026-04-24 09:59 | 37.81186 | -1.11346 | 647 ft | 24 kts | 45° |
| 2026-04-24 09:59 | 37.81277 | -1.11318 | 647 ft | 13 kts | 326° |
| 2026-04-24 09:59 | 37.81339 | -1.11396 | 649 ft | 13 kts | 299° |
| 2026-04-24 09:59 | 37.81303 | -1.11509 | 651 ft | 18 kts | 225° |
| 2026-04-24 10:00 | 37.81198 | -1.11644 | 650 ft | 25 kts | 225° |
| 2026-04-24 10:00 | 37.81061 | -1.11820 | 648 ft | 27 kts | 225° |
| 2026-04-24 10:00 | 37.80918 | -1.12003 | 646 ft | 30 kts | 225° |
| 2026-04-24 10:00 | 37.80775 | -1.12187 | 646 ft | 28 kts | 225° |
| 2026-04-24 10:01 | 37.80641 | -1.12360 | 650 ft | 27 kts | 225° |
| 2026-04-24 10:01 | 37.80515 | -1.12522 | 648 ft | 25 kts | 225° |
| 2026-04-24 10:01 | 37.80409 | -1.12658 | 649 ft | 13 kts | 225° |
| 2026-04-24 10:01 | 37.80422 | -1.12750 | 646 ft | 13 kts | 311° |
| 2026-04-24 10:02 | 37.80456 | -1.12839 | 646 ft | 11 kts | 253° |
| 2026-04-24 10:02 | 37.80407 | -1.12914 | 646 ft | 11 kts | 226° |
| 2026-04-24 10:02 | 37.80391 | -1.12953 | 646 ft | 3 kts | 290° |
| 2026-04-24 10:02 | 37.80408 | -1.12981 | 646 ft | 5 kts | 313° |
| 2026-04-24 10:03 | 37.80429 | -1.13007 | 646 ft | 1 kts | 315° |
| 2026-04-24 10:03 | 37.80432 | -1.13011 | 646 ft | 0 kts | 315° |